SALOXN 191650Z 34008KT 45KM FEW050CU 27/10 Q1014 RMK FEW
FCLOXN AMD 191400Z 1912/1921 CNL